sensor_id;sensor_type;location;lat;lon;timestamp;temperature;humidity
64924;HTU21D;51436;44.692;39.214;2022-12-07T00:01:32;2.32;68.35
64924;HTU21D;51436;44.692;39.214;2022-12-07T00:04:01;2.37;68.33
64924;HTU21D;51436;44.692;39.214;2022-12-07T00:06:33;2.32;68.40
64924;HTU21D;51436;44.692;39.214;2022-12-07T00:09:14;2.32;68.40
64924;HTU21D;51436;44.692;39.214;2022-12-07T00:11:42;2.36;68.42
64924;HTU21D;51436;44.692;39.214;2022-12-07T00:14:12;2.38;68.30
64924;HTU21D;51436;44.692;39.214;2022-12-07T00:16:40;2.38;68.28
64924;HTU21D;51436;44.692;39.214;2022-12-07T00:19:10;2.31;68.50
64924;HTU21D;51436;44.692;39.214;2022-12-07T00:21:36;2.34;68.55
64924;HTU21D;51436;44.692;39.214;2022-12-07T00:24:05;2.34;68.52
64924;HTU21D;51436;44.692;39.214;2022-12-07T00:26:35;2.30;68.50
64924;HTU21D;51436;44.692;39.214;2022-12-07T00:29:09;2.25;68.64
64924;HTU21D;51436;44.692;39.214;2022-12-07T00:31:40;2.25;68.71
64924;HTU21D;51436;44.692;39.214;2022-12-07T00:34:11;2.26;68.59
64924;HTU21D;51436;44.692;39.214;2022-12-07T00:36:40;2.21;68.65
64924;HTU21D;51436;44.692;39.214;2022-12-07T00:39:07;2.16;68.71
64924;HTU21D;51436;44.692;39.214;2022-12-07T00:41:34;2.11;68.81
64924;HTU21D;51436;44.692;39.214;2022-12-07T00:44:01;2.07;68.89
64924;HTU21D;51436;44.692;39.214;2022-12-07T00:46:29;2.02;68.92
64924;HTU21D;51436;44.692;39.214;2022-12-07T00:48:56;2.05;68.94
64924;HTU21D;51436;44.692;39.214;2022-12-07T00:51:24;2.07;68.85
64924;HTU21D;51436;44.692;39.214;2022-12-07T00:53:52;2.02;68.91
64924;HTU21D;51436;44.692;39.214;2022-12-07T00:56:22;1.99;68.99
64924;HTU21D;51436;44.692;39.214;2022-12-07T00:59:00;1.99;69.04
64924;HTU21D;51436;44.692;39.214;2022-12-07T01:09:25;2.17;68.87
64924;HTU21D;51436;44.692;39.214;2022-12-07T01:11:52;2.24;68.68
64924;HTU21D;51436;44.692;39.214;2022-12-07T01:14:18;2.26;68.68
64924;HTU21D;51436;44.692;39.214;2022-12-07T01:16:46;2.21;68.79
64924;HTU21D;51436;44.692;39.214;2022-12-07T01:19:12;2.20;68.85
64924;HTU21D;51436;44.692;39.214;2022-12-07T01:21:39;2.19;68.84
64924;HTU21D;51436;44.692;39.214;2022-12-07T01:24:09;2.19;68.77
64924;HTU21D;51436;44.692;39.214;2022-12-07T01:26:38;2.15;68.83
64924;HTU21D;51436;44.692;39.214;2022-12-07T01:29:05;2.17;68.81
64924;HTU21D;51436;44.692;39.214;2022-12-07T01:31:33;2.21;68.75
64924;HTU21D;51436;44.692;39.214;2022-12-07T01:34:00;2.24;68.63
64924;HTU21D;51436;44.692;39.214;2022-12-07T01:36:32;2.20;68.64
64924;HTU21D;51436;44.692;39.214;2022-12-07T01:39:05;2.16;68.77
64924;HTU21D;51436;44.692;39.214;2022-12-07T01:41:37;2.17;68.82
64924;HTU21D;51436;44.692;39.214;2022-12-07T01:44:08;2.20;68.79
64924;HTU21D;51436;44.692;39.214;2022-12-07T01:46:35;2.20;68.78
64924;HTU21D;51436;44.692;39.214;2022-12-07T01:49:12;2.20;68.79
64924;HTU21D;51436;44.692;39.214;2022-12-07T01:51:43;2.21;68.71
64924;HTU21D;51436;44.692;39.214;2022-12-07T01:54:11;2.22;68.69
64924;HTU21D;51436;44.692;39.214;2022-12-07T01:56:42;2.21;68.68
64924;HTU21D;51436;44.692;39.214;2022-12-07T01:59:13;2.20;68.77
64924;HTU21D;51436;44.692;39.214;2022-12-07T02:01:39;2.19;68.78
64924;HTU21D;51436;44.692;39.214;2022-12-07T02:04:06;2.16;68.84
64924;HTU21D;51436;44.692;39.214;2022-12-07T02:06:38;2.17;68.87
64924;HTU21D;51436;44.692;39.214;2022-12-07T02:09:18;2.23;68.79
64924;HTU21D;51436;44.692;39.214;2022-12-07T02:11:49;2.23;68.71
64924;HTU21D;51436;44.692;39.214;2022-12-07T02:14:16;2.23;68.71
64924;HTU21D;51436;44.692;39.214;2022-12-07T02:22:26;2.11;69.00
64924;HTU21D;51436;44.692;39.214;2022-12-07T02:25:29;2.08;68.94
64924;HTU21D;51436;44.692;39.214;2022-12-07T02:30:50;2.01;69.20
64924;HTU21D;51436;44.692;39.214;2022-12-07T02:33:40;1.99;69.22
64924;HTU21D;51436;44.692;39.214;2022-12-07T02:43:57;2.05;68.93
64924;HTU21D;51436;44.692;39.214;2022-12-07T02:46:32;2.02;68.97
64924;HTU21D;51436;44.692;39.214;2022-12-07T02:49:00;1.95;69.15
64924;HTU21D;51436;44.692;39.214;2022-12-07T02:51:30;1.90;69.24
64924;HTU21D;51436;44.692;39.214;2022-12-07T02:53:59;1.84;69.45
64924;HTU21D;51436;44.692;39.214;2022-12-07T02:56:37;1.86;69.34
64924;HTU21D;51436;44.692;39.214;2022-12-07T03:10:56;1.82;69.35
64924;HTU21D;51436;44.692;39.214;2022-12-07T03:13:46;1.86;69.19
64924;HTU21D;51436;44.692;39.214;2022-12-07T03:18:52;1.82;69.36
64924;HTU21D;51436;44.692;39.214;2022-12-07T03:21:24;1.85;69.30
64924;HTU21D;51436;44.692;39.214;2022-12-07T03:23:56;1.91;69.26
64924;HTU21D;51436;44.692;39.214;2022-12-07T03:26:30;1.95;69.10
64924;HTU21D;51436;44.692;39.214;2022-12-07T03:29:01;1.93;69.10
64924;HTU21D;51436;44.692;39.214;2022-12-07T03:31:32;1.88;69.20
64924;HTU21D;51436;44.692;39.214;2022-12-07T03:37:15;1.83;69.23
64924;HTU21D;51436;44.692;39.214;2022-12-07T03:42:42;1.84;69.14
64924;HTU21D;51436;44.692;39.214;2022-12-07T03:45:09;1.78;69.33
64924;HTU21D;51436;44.692;39.214;2022-12-07T03:48:05;1.71;69.41
64924;HTU21D;51436;44.692;39.214;2022-12-07T03:50:50;1.71;69.40
64924;HTU21D;51436;44.692;39.214;2022-12-07T03:53:24;1.69;69.37
64924;HTU21D;51436;44.692;39.214;2022-12-07T03:55:53;1.64;69.56
64924;HTU21D;51436;44.692;39.214;2022-12-07T03:58:21;1.64;69.49
64924;HTU21D;51436;44.692;39.214;2022-12-07T04:00:49;1.65;69.55
64924;HTU21D;51436;44.692;39.214;2022-12-07T04:03:16;1.70;69.52
64924;HTU21D;51436;44.692;39.214;2022-12-07T04:05:43;1.75;69.42
64924;HTU21D;51436;44.692;39.214;2022-12-07T04:08:09;1.79;69.27
64924;HTU21D;51436;44.692;39.214;2022-12-07T04:10:36;1.83;69.23
64924;HTU21D;51436;44.692;39.214;2022-12-07T04:13:03;1.86;69.15
64924;HTU21D;51436;44.692;39.214;2022-12-07T04:15:29;1.90;69.13
64924;HTU21D;51436;44.692;39.214;2022-12-07T04:17:55;1.88;69.09
64924;HTU21D;51436;44.692;39.214;2022-12-07T04:20:22;1.87;69.10
64924;HTU21D;51436;44.692;39.214;2022-12-07T04:22:48;1.80;69.26
64924;HTU21D;51436;44.692;39.214;2022-12-07T04:25:15;1.67;69.53
64924;HTU21D;51436;44.692;39.214;2022-12-07T04:27:41;1.61;69.71
64924;HTU21D;51436;44.692;39.214;2022-12-07T04:30:08;1.61;69.71
64924;HTU21D;51436;44.692;39.214;2022-12-07T04:32:35;1.58;69.74
64924;HTU21D;51436;44.692;39.214;2022-12-07T04:35:01;1.56;69.81
64924;HTU21D;51436;44.692;39.214;2022-12-07T04:37:27;1.60;69.77
64924;HTU21D;51436;44.692;39.214;2022-12-07T04:39:54;1.63;69.58
64924;HTU21D;51436;44.692;39.214;2022-12-07T04:42:20;1.70;69.48
64924;HTU21D;51436;44.692;39.214;2022-12-07T04:44:47;1.72;69.43
64924;HTU21D;51436;44.692;39.214;2022-12-07T04:47:13;1.79;69.40
64924;HTU21D;51436;44.692;39.214;2022-12-07T04:49:40;1.87;69.24
64924;HTU21D;51436;44.692;39.214;2022-12-07T04:52:06;1.91;69.16
64924;HTU21D;51436;44.692;39.214;2022-12-07T04:54:33;1.90;69.21
64924;HTU21D;51436;44.692;39.214;2022-12-07T04:56:59;1.96;69.10
64924;HTU21D;51436;44.692;39.214;2022-12-07T04:59:25;1.96;69.11
64924;HTU21D;51436;44.692;39.214;2022-12-07T05:01:52;1.96;69.16
64924;HTU21D;51436;44.692;39.214;2022-12-07T05:04:18;1.94;69.18
64924;HTU21D;51436;44.692;39.214;2022-12-07T05:06:45;1.88;69.26
64924;HTU21D;51436;44.692;39.214;2022-12-07T05:09:11;1.85;69.35
64924;HTU21D;51436;44.692;39.214;2022-12-07T05:11:38;1.86;69.39
64924;HTU21D;51436;44.692;39.214;2022-12-07T05:14:07;1.85;69.32
64924;HTU21D;51436;44.692;39.214;2022-12-07T05:16:34;1.86;69.41
64924;HTU21D;51436;44.692;39.214;2022-12-07T05:19:00;1.91;69.29
64924;HTU21D;51436;44.692;39.214;2022-12-07T05:21:27;1.93;69.24
64924;HTU21D;51436;44.692;39.214;2022-12-07T05:23:53;1.94;69.24
64924;HTU21D;51436;44.692;39.214;2022-12-07T05:26:20;2.00;69.16
64924;HTU21D;51436;44.692;39.214;2022-12-07T05:28:51;2.05;69.02
64924;HTU21D;51436;44.692;39.214;2022-12-07T05:31:18;2.01;69.16
64924;HTU21D;51436;44.692;39.214;2022-12-07T05:33:45;2.00;69.20
64924;HTU21D;51436;44.692;39.214;2022-12-07T05:36:11;2.01;69.25
64924;HTU21D;51436;44.692;39.214;2022-12-07T05:38:38;2.05;69.17
64924;HTU21D;51436;44.692;39.214;2022-12-07T05:41:06;2.02;69.20
64924;HTU21D;51436;44.692;39.214;2022-12-07T05:43:33;2.01;69.26
64924;HTU21D;51436;44.692;39.214;2022-12-07T05:45:59;2.08;69.23
64924;HTU21D;51436;44.692;39.214;2022-12-07T05:48:26;2.15;69.03
64924;HTU21D;51436;44.692;39.214;2022-12-07T05:50:52;2.15;68.93
64924;HTU21D;51436;44.692;39.214;2022-12-07T05:53:19;2.14;68.94
64924;HTU21D;51436;44.692;39.214;2022-12-07T05:55:45;2.17;68.97
64924;HTU21D;51436;44.692;39.214;2022-12-07T05:58:11;2.24;68.91
64924;HTU21D;51436;44.692;39.214;2022-12-07T06:01:16;2.20;69.17
64924;HTU21D;51436;44.692;39.214;2022-12-07T06:03:42;2.32;68.69
64924;HTU21D;51436;44.692;39.214;2022-12-07T06:06:09;2.32;68.74
64924;HTU21D;51436;44.692;39.214;2022-12-07T06:08:35;2.31;68.81
64924;HTU21D;51436;44.692;39.214;2022-12-07T06:11:02;2.27;68.98
64924;HTU21D;51436;44.692;39.214;2022-12-07T06:13:47;2.30;68.94
64924;HTU21D;51436;44.692;39.214;2022-12-07T06:16:13;2.34;68.91
64924;HTU21D;51436;44.692;39.214;2022-12-07T06:18:40;2.40;68.84
64924;HTU21D;51436;44.692;39.214;2022-12-07T06:21:06;2.46;68.78
64924;HTU21D;51436;44.692;39.214;2022-12-07T06:23:32;2.54;68.71
64924;HTU21D;51436;44.692;39.214;2022-12-07T06:25:59;2.56;68.62
64924;HTU21D;51436;44.692;39.214;2022-12-07T06:29:42;2.53;68.70
64924;HTU21D;51436;44.692;39.214;2022-12-07T06:31:38;2.56;68.72
64924;HTU21D;51436;44.692;39.214;2022-12-07T06:34:08;2.54;68.73
64924;HTU21D;51436;44.692;39.214;2022-12-07T06:36:35;2.55;68.78
64924;HTU21D;51436;44.692;39.214;2022-12-07T06:39:01;2.59;68.81
64924;HTU21D;51436;44.692;39.214;2022-12-07T06:41:30;2.59;68.74
64924;HTU21D;51436;44.692;39.214;2022-12-07T06:43:57;2.59;68.75
64924;HTU21D;51436;44.692;39.214;2022-12-07T06:46:23;2.60;68.69
64924;HTU21D;51436;44.692;39.214;2022-12-07T06:49:10;2.57;68.71
64924;HTU21D;51436;44.692;39.214;2022-12-07T06:51:36;2.57;68.75
64924;HTU21D;51436;44.692;39.214;2022-12-07T06:54:11;2.57;68.82
64924;HTU21D;51436;44.692;39.214;2022-12-07T06:56:37;2.62;68.75
64924;HTU21D;51436;44.692;39.214;2022-12-07T06:59:07;2.67;68.60
64924;HTU21D;51436;44.692;39.214;2022-12-07T07:01:35;2.68;68.59
64924;HTU21D;51436;44.692;39.214;2022-12-07T07:04:01;2.73;68.56
64924;HTU21D;51436;44.692;39.214;2022-12-07T07:06:28;2.71;68.64
64924;HTU21D;51436;44.692;39.214;2022-12-07T07:08:54;2.74;68.55
64924;HTU21D;51436;44.692;39.214;2022-12-07T07:19:36;2.60;68.78
64924;HTU21D;51436;44.692;39.214;2022-12-07T07:22:04;2.65;68.65
64924;HTU21D;51436;44.692;39.214;2022-12-07T07:24:30;2.68;68.67
64924;HTU21D;51436;44.692;39.214;2022-12-07T07:26:56;2.66;68.72
64924;HTU21D;51436;44.692;39.214;2022-12-07T07:29:23;2.66;68.78
64924;HTU21D;51436;44.692;39.214;2022-12-07T07:31:49;2.61;68.84
64924;HTU21D;51436;44.692;39.214;2022-12-07T07:34:15;2.60;68.94
64924;HTU21D;51436;44.692;39.214;2022-12-07T07:36:42;2.59;68.94
64924;HTU21D;51436;44.692;39.214;2022-12-07T07:39:10;2.54;68.95
64924;HTU21D;51436;44.692;39.214;2022-12-07T07:41:38;2.50;69.14
64924;HTU21D;51436;44.692;39.214;2022-12-07T07:44:11;2.51;69.17
64924;HTU21D;51436;44.692;39.214;2022-12-07T07:46:38;2.64;68.93
64924;HTU21D;51436;44.692;39.214;2022-12-07T07:49:04;2.71;68.65
64924;HTU21D;51436;44.692;39.214;2022-12-07T07:51:31;2.78;68.61
64924;HTU21D;51436;44.692;39.214;2022-12-07T07:53:57;2.82;68.62
64924;HTU21D;51436;44.692;39.214;2022-12-07T07:56:24;2.95;68.46
64924;HTU21D;51436;44.692;39.214;2022-12-07T07:58:53;3.03;68.24
64924;HTU21D;51436;44.692;39.214;2022-12-07T08:01:19;3.10;68.15
64924;HTU21D;51436;44.692;39.214;2022-12-07T08:03:46;3.11;68.11
64924;HTU21D;51436;44.692;39.214;2022-12-07T08:06:13;3.12;68.13
64924;HTU21D;51436;44.692;39.214;2022-12-07T08:08:39;3.08;68.30
64924;HTU21D;51436;44.692;39.214;2022-12-07T08:11:07;3.00;68.44
64924;HTU21D;51436;44.692;39.214;2022-12-07T08:13:34;2.97;68.58
64924;HTU21D;51436;44.692;39.214;2022-12-07T08:16:05;2.99;68.58
64924;HTU21D;51436;44.692;39.214;2022-12-07T08:18:35;3.02;68.50
64924;HTU21D;51436;44.692;39.214;2022-12-07T08:21:03;3.08;68.46
64924;HTU21D;51436;44.692;39.214;2022-12-07T08:23:30;3.08;68.40
64924;HTU21D;51436;44.692;39.214;2022-12-07T08:26:05;3.11;68.41
64924;HTU21D;51436;44.692;39.214;2022-12-07T08:28:32;3.10;68.46
64924;HTU21D;51436;44.692;39.214;2022-12-07T08:31:10;3.09;68.58
64924;HTU21D;51436;44.692;39.214;2022-12-07T08:33:37;3.11;68.65
64924;HTU21D;51436;44.692;39.214;2022-12-07T08:36:06;3.19;68.52
64924;HTU21D;51436;44.692;39.214;2022-12-07T08:38:35;3.23;68.38
64924;HTU21D;51436;44.692;39.214;2022-12-07T08:41:02;3.28;68.39
64924;HTU21D;51436;44.692;39.214;2022-12-07T08:43:29;3.25;68.48
64924;HTU21D;51436;44.692;39.214;2022-12-07T08:46:11;3.28;68.43
64924;HTU21D;51436;44.692;39.214;2022-12-07T08:48:50;3.45;68.23
64924;HTU21D;51436;44.692;39.214;2022-12-07T08:51:20;3.57;67.88
64924;HTU21D;51436;44.692;39.214;2022-12-07T08:53:48;3.64;67.90
64924;HTU21D;51436;44.692;39.214;2022-12-07T08:56:15;3.64;67.94
64924;HTU21D;51436;44.692;39.214;2022-12-07T08:58:42;3.69;68.01
64924;HTU21D;51436;44.692;39.214;2022-12-07T09:01:09;3.73;68.08
64924;HTU21D;51436;44.692;39.214;2022-12-07T09:03:36;3.79;68.01
64924;HTU21D;51436;44.692;39.214;2022-12-07T09:06:02;3.82;68.13
64924;HTU21D;51436;44.692;39.214;2022-12-07T09:08:35;3.84;68.12
64924;HTU21D;51436;44.692;39.214;2022-12-07T09:11:03;3.89;68.07
64924;HTU21D;51436;44.692;39.214;2022-12-07T09:13:29;3.95;68.10
64924;HTU21D;51436;44.692;39.214;2022-12-07T09:15:56;4.01;68.10
64924;HTU21D;51436;44.692;39.214;2022-12-07T09:18:23;4.12;67.89
64924;HTU21D;51436;44.692;39.214;2022-12-07T09:20:51;4.17;67.80
64924;HTU21D;51436;44.692;39.214;2022-12-07T09:23:17;4.21;67.80
64924;HTU21D;51436;44.692;39.214;2022-12-07T09:25:43;4.27;67.81
64924;HTU21D;51436;44.692;39.214;2022-12-07T09:28:10;4.30;67.65
64924;HTU21D;51436;44.692;39.214;2022-12-07T09:30:36;4.33;67.63
64924;HTU21D;51436;44.692;39.214;2022-12-07T09:33:03;4.38;67.73
64924;HTU21D;51436;44.692;39.214;2022-12-07T09:35:29;4.49;67.68
64924;HTU21D;51436;44.692;39.214;2022-12-07T09:37:55;4.65;67.43
64924;HTU21D;51436;44.692;39.214;2022-12-07T09:40:23;4.73;67.13
64924;HTU21D;51436;44.692;39.214;2022-12-07T09:42:53;4.74;67.27
64924;HTU21D;51436;44.692;39.214;2022-12-07T09:45:38;4.77;67.17
64924;HTU21D;51436;44.692;39.214;2022-12-07T09:48:08;4.78;67.27
64924;HTU21D;51436;44.692;39.214;2022-12-07T09:50:41;4.73;67.43
64924;HTU21D;51436;44.692;39.214;2022-12-07T09:53:17;4.71;67.52
64924;HTU21D;51436;44.692;39.214;2022-12-07T09:55:45;4.76;67.50
64924;HTU21D;51436;44.692;39.214;2022-12-07T09:58:31;4.75;67.45
64924;HTU21D;51436;44.692;39.214;2022-12-07T10:03:38;4.76;67.47
64924;HTU21D;51436;44.692;39.214;2022-12-07T10:06:06;4.80;67.62
64924;HTU21D;51436;44.692;39.214;2022-12-07T10:08:33;4.92;67.42
64924;HTU21D;51436;44.692;39.214;2022-12-07T10:11:02;5.01;67.21
64924;HTU21D;51436;44.692;39.214;2022-12-07T10:13:47;5.10;67.01
64924;HTU21D;51436;44.692;39.214;2022-12-07T10:16:38;5.16;67.01
64924;HTU21D;51436;44.692;39.214;2022-12-07T10:19:22;5.30;66.81
64924;HTU21D;51436;44.692;39.214;2022-12-07T10:22:11;5.41;66.66
64924;HTU21D;51436;44.692;39.214;2022-12-07T10:24:40;5.47;66.53
64924;HTU21D;51436;44.692;39.214;2022-12-07T10:27:36;5.52;66.54
64924;HTU21D;51436;44.692;39.214;2022-12-07T10:32:54;5.69;66.24
64924;HTU21D;51436;44.692;39.214;2022-12-07T10:35:26;5.66;66.33
64924;HTU21D;51436;44.692;39.214;2022-12-07T10:37:55;5.67;66.46
64924;HTU21D;51436;44.692;39.214;2022-12-07T10:40:28;5.71;66.43
64924;HTU21D;51436;44.692;39.214;2022-12-07T10:51:38;5.75;66.62
64924;HTU21D;51436;44.692;39.214;2022-12-07T10:54:10;5.79;66.49
64924;HTU21D;51436;44.692;39.214;2022-12-07T10:57:28;5.76;66.59
64924;HTU21D;51436;44.692;39.214;2022-12-07T11:00:21;5.70;66.71
64924;HTU21D;51436;44.692;39.214;2022-12-07T11:05:50;5.77;66.74
64924;HTU21D;51436;44.692;39.214;2022-12-07T11:08:44;5.79;66.69
64924;HTU21D;51436;44.692;39.214;2022-12-07T11:11:21;5.84;66.68
64924;HTU21D;51436;44.692;39.214;2022-12-07T11:17:07;5.84;66.71
64924;HTU21D;51436;44.692;39.214;2022-12-07T11:19:58;5.84;66.75
64924;HTU21D;51436;44.692;39.214;2022-12-07T11:30:28;5.99;66.65
64924;HTU21D;51436;44.692;39.214;2022-12-07T11:38:23;6.36;66.17
64924;HTU21D;51436;44.692;39.214;2022-12-07T11:40:54;6.43;66.02
64924;HTU21D;51436;44.692;39.214;2022-12-07T11:43:32;6.44;66.00
64924;HTU21D;51436;44.692;39.214;2022-12-07T11:46:04;6.48;65.93
64924;HTU21D;51436;44.692;39.214;2022-12-07T11:48:42;6.51;66.01
64924;HTU21D;51436;44.692;39.214;2022-12-07T11:51:11;6.58;65.91
64924;HTU21D;51436;44.692;39.214;2022-12-07T11:56:40;6.73;65.63
64924;HTU21D;51436;44.692;39.214;2022-12-07T11:59:13;6.81;65.65
64924;HTU21D;51436;44.692;39.214;2022-12-07T12:01:57;6.83;65.59
64924;HTU21D;51436;44.692;39.214;2022-12-07T12:04:45;6.86;65.68
64924;HTU21D;51436;44.692;39.214;2022-12-07T12:07:19;6.88;65.54
64924;HTU21D;51436;44.692;39.214;2022-12-07T12:10:02;6.86;65.59
64924;HTU21D;51436;44.692;39.214;2022-12-07T12:13:07;6.76;65.87
64924;HTU21D;51436;44.692;39.214;2022-12-07T12:15:51;6.74;65.91
64924;HTU21D;51436;44.692;39.214;2022-12-07T12:21:29;6.73;66.01
64924;HTU21D;51436;44.692;39.214;2022-12-07T12:24:06;6.72;66.05
64924;HTU21D;51436;44.692;39.214;2022-12-07T12:26:37;6.73;66.03
64924;HTU21D;51436;44.692;39.214;2022-12-07T12:29:06;6.74;66.02
64924;HTU21D;51436;44.692;39.214;2022-12-07T12:31:38;6.75;66.00
64924;HTU21D;51436;44.692;39.214;2022-12-07T12:42:55;6.78;66.01
64924;HTU21D;51436;44.692;39.214;2022-12-07T12:45:29;6.76;66.07
64924;HTU21D;51436;44.692;39.214;2022-12-07T12:48:00;6.73;66.14
64924;HTU21D;51436;44.692;39.214;2022-12-07T12:50:37;6.72;66.21
64924;HTU21D;51436;44.692;39.214;2022-12-07T12:53:25;6.71;66.30
64924;HTU21D;51436;44.692;39.214;2022-12-07T12:59:29;6.70;66.33
64924;HTU21D;51436;44.692;39.214;2022-12-07T13:15:46;6.57;66.46
64924;HTU21D;51436;44.692;39.214;2022-12-07T13:32:28;6.30;67.00
64924;HTU21D;51436;44.692;39.214;2022-12-07T13:34:56;6.28;67.04
64924;HTU21D;51436;44.692;39.214;2022-12-07T13:37:26;6.26;67.09
64924;HTU21D;51436;44.692;39.214;2022-12-07T13:39:58;6.25;67.07
64924;HTU21D;51436;44.692;39.214;2022-12-07T13:42:27;6.22;67.14
64924;HTU21D;51436;44.692;39.214;2022-12-07T13:44:55;6.21;67.17
64924;HTU21D;51436;44.692;39.214;2022-12-07T13:47:43;6.16;67.20
64924;HTU21D;51436;44.692;39.214;2022-12-07T13:52:56;6.12;67.23
64924;HTU21D;51436;44.692;39.214;2022-12-07T13:55:23;6.10;67.28
64924;HTU21D;51436;44.692;39.214;2022-12-07T13:57:51;6.06;67.34
64924;HTU21D;51436;44.692;39.214;2022-12-07T14:00:20;6.05;67.37
64924;HTU21D;51436;44.692;39.214;2022-12-07T14:05:42;6.01;67.44
64924;HTU21D;51436;44.692;39.214;2022-12-07T14:11:01;5.94;67.56
64924;HTU21D;51436;44.692;39.214;2022-12-07T14:13:51;5.90;67.60
64924;HTU21D;51436;44.692;39.214;2022-12-07T14:16:31;5.85;67.66
64924;HTU21D;51436;44.692;39.214;2022-12-07T14:19:00;5.82;67.78
64924;HTU21D;51436;44.692;39.214;2022-12-07T14:21:29;5.79;67.91
64924;HTU21D;51436;44.692;39.214;2022-12-07T14:24:12;5.75;67.90
64924;HTU21D;51436;44.692;39.214;2022-12-07T14:26:41;5.71;68.06
64924;HTU21D;51436;44.692;39.214;2022-12-07T14:31:52;5.54;68.32
64924;HTU21D;51436;44.692;39.214;2022-12-07T14:34:23;5.54;68.21
64924;HTU21D;51436;44.692;39.214;2022-12-07T14:36:50;5.52;68.39
64924;HTU21D;51436;44.692;39.214;2022-12-07T14:39:17;5.52;68.39
64924;HTU21D;51436;44.692;39.214;2022-12-07T14:41:49;5.54;68.39
64924;HTU21D;51436;44.692;39.214;2022-12-07T14:44:21;5.53;68.37
64924;HTU21D;51436;44.692;39.214;2022-12-07T14:46:49;5.54;68.39
64924;HTU21D;51436;44.692;39.214;2022-12-07T14:49:16;5.54;68.38
64924;HTU21D;51436;44.692;39.214;2022-12-07T14:52:00;5.50;68.33
64924;HTU21D;51436;44.692;39.214;2022-12-07T14:54:31;5.49;68.47
64924;HTU21D;51436;44.692;39.214;2022-12-07T14:57:03;5.46;68.51
64924;HTU21D;51436;44.692;39.214;2022-12-07T14:59:29;5.38;68.64
64924;HTU21D;51436;44.692;39.214;2022-12-07T15:01:56;5.34;68.72
64924;HTU21D;51436;44.692;39.214;2022-12-07T15:04:22;5.32;68.77
64924;HTU21D;51436;44.692;39.214;2022-12-07T15:07:01;5.30;68.68
64924;HTU21D;51436;44.692;39.214;2022-12-07T15:09:46;5.25;68.71
64924;HTU21D;51436;44.692;39.214;2022-12-07T15:12:13;5.21;68.89
64924;HTU21D;51436;44.692;39.214;2022-12-07T15:14:40;5.16;69.02
64924;HTU21D;51436;44.692;39.214;2022-12-07T15:17:06;5.10;69.14
64924;HTU21D;51436;44.692;39.214;2022-12-07T15:19:33;5.06;69.15
64924;HTU21D;51436;44.692;39.214;2022-12-07T15:22:19;5.00;69.07
64924;HTU21D;51436;44.692;39.214;2022-12-07T15:24:45;4.90;69.34
64924;HTU21D;51436;44.692;39.214;2022-12-07T15:27:12;4.82;69.50
64924;HTU21D;51436;44.692;39.214;2022-12-07T15:29:38;4.77;69.55
64924;HTU21D;51436;44.692;39.214;2022-12-07T15:32:05;4.71;69.63
64924;HTU21D;51436;44.692;39.214;2022-12-07T15:34:32;4.68;69.67
64924;HTU21D;51436;44.692;39.214;2022-12-07T15:36:58;4.68;69.55
64924;HTU21D;51436;44.692;39.214;2022-12-07T15:39:25;4.62;69.62
64924;HTU21D;51436;44.692;39.214;2022-12-07T15:41:51;4.53;69.78
64924;HTU21D;51436;44.692;39.214;2022-12-07T15:44:18;4.47;69.90
64924;HTU21D;51436;44.692;39.214;2022-12-07T15:47:04;4.37;70.07
64924;HTU21D;51436;44.692;39.214;2022-12-07T15:49:31;4.36;70.11
64924;HTU21D;51436;44.692;39.214;2022-12-07T15:51:57;4.35;70.10
64924;HTU21D;51436;44.692;39.214;2022-12-07T15:54:26;4.37;70.02
64924;HTU21D;51436;44.692;39.214;2022-12-07T15:56:53;4.37;69.90
64924;HTU21D;51436;44.692;39.214;2022-12-07T15:59:20;4.38;69.87
64924;HTU21D;51436;44.692;39.214;2022-12-07T16:01:47;4.32;69.98
64924;HTU21D;51436;44.692;39.214;2022-12-07T16:04:13;4.30;70.03
64924;HTU21D;51436;44.692;39.214;2022-12-07T16:06:40;4.27;70.02
64924;HTU21D;51436;44.692;39.214;2022-12-07T16:09:06;4.26;70.01
64924;HTU21D;51436;44.692;39.214;2022-12-07T16:11:33;4.21;70.06
64924;HTU21D;51436;44.692;39.214;2022-12-07T16:14:00;4.16;70.13
64924;HTU21D;51436;44.692;39.214;2022-12-07T16:16:26;4.08;70.28
64924;HTU21D;51436;44.692;39.214;2022-12-07T16:18:53;4.04;70.31
64924;HTU21D;51436;44.692;39.214;2022-12-07T16:21:20;4.02;70.29
64924;HTU21D;51436;44.692;39.214;2022-12-07T16:23:46;3.98;70.29
64924;HTU21D;51436;44.692;39.214;2022-12-07T16:26:15;3.88;70.45
64924;HTU21D;51436;44.692;39.214;2022-12-07T16:28:42;3.84;70.61
64924;HTU21D;51436;44.692;39.214;2022-12-07T16:31:14;3.84;70.50
64924;HTU21D;51436;44.692;39.214;2022-12-07T16:33:42;3.83;70.46
64924;HTU21D;51436;44.692;39.214;2022-12-07T16:36:11;3.78;70.48
64924;HTU21D;51436;44.692;39.214;2022-12-07T16:38:38;3.76;70.54
64924;HTU21D;51436;44.692;39.214;2022-12-07T16:41:07;3.71;70.48
64924;HTU21D;51436;44.692;39.214;2022-12-07T16:43:35;3.67;70.61
64924;HTU21D;51436;44.692;39.214;2022-12-07T16:46:02;3.61;70.73
64924;HTU21D;51436;44.692;39.214;2022-12-07T16:48:29;3.57;70.81
64924;HTU21D;51436;44.692;39.214;2022-12-07T16:50:56;3.55;70.85
64924;HTU21D;51436;44.692;39.214;2022-12-07T16:53:24;3.54;70.76
64924;HTU21D;51436;44.692;39.214;2022-12-07T16:55:50;3.50;70.80
64924;HTU21D;51436;44.692;39.214;2022-12-07T16:58:17;3.45;70.85
64924;HTU21D;51436;44.692;39.214;2022-12-07T17:00:44;3.41;70.88
64924;HTU21D;51436;44.692;39.214;2022-12-07T17:03:13;3.32;70.97
64924;HTU21D;51436;44.692;39.214;2022-12-07T17:05:41;3.29;71.08
64924;HTU21D;51436;44.692;39.214;2022-12-07T17:08:09;3.26;71.13
64924;HTU21D;51436;44.692;39.214;2022-12-07T17:10:41;3.24;71.07
64924;HTU21D;51436;44.692;39.214;2022-12-07T17:13:08;3.20;71.15
64924;HTU21D;51436;44.692;39.214;2022-12-07T17:15:57;3.17;71.14
64924;HTU21D;51436;44.692;39.214;2022-12-07T17:18:27;3.17;71.10
64924;HTU21D;51436;44.692;39.214;2022-12-07T17:20:54;3.14;71.19
64924;HTU21D;51436;44.692;39.214;2022-12-07T17:23:21;3.14;71.19
64924;HTU21D;51436;44.692;39.214;2022-12-07T17:25:47;3.16;71.06
64924;HTU21D;51436;44.692;39.214;2022-12-07T17:28:13;3.11;71.11
64924;HTU21D;51436;44.692;39.214;2022-12-07T17:30:40;3.10;71.19
64924;HTU21D;51436;44.692;39.214;2022-12-07T17:33:06;3.10;71.13
64924;HTU21D;51436;44.692;39.214;2022-12-07T17:35:33;3.08;71.10
64924;HTU21D;51436;44.692;39.214;2022-12-07T17:37:59;3.10;71.06
64924;HTU21D;51436;44.692;39.214;2022-12-07T17:40:26;3.08;71.06
64924;HTU21D;51436;44.692;39.214;2022-12-07T17:42:52;3.06;71.12
64924;HTU21D;51436;44.692;39.214;2022-12-07T17:45:18;3.05;71.07
64924;HTU21D;51436;44.692;39.214;2022-12-07T17:47:45;3.01;71.13
64924;HTU21D;51436;44.692;39.214;2022-12-07T17:50:11;2.98;71.19
64924;HTU21D;51436;44.692;39.214;2022-12-07T17:52:39;2.94;71.25
64924;HTU21D;51436;44.692;39.214;2022-12-07T17:55:24;2.91;71.25
64924;HTU21D;51436;44.692;39.214;2022-12-07T17:57:51;2.87;71.22
64924;HTU21D;51436;44.692;39.214;2022-12-07T18:00:18;2.84;71.27